createdAt,value
2018-10-16T00:00:10.092Z,8.00
2018-10-16T00:01:10.103Z,8.20
2018-10-16T00:02:10.066Z,8.30
2018-10-16T00:03:10.122Z,8.70
2018-10-16T00:04:10.042Z,8.50
2018-10-16T00:05:10.031Z,8.70
2018-10-16T00:06:10.048Z,9.20
2018-10-16T00:07:10.033Z,8.30
2018-10-16T00:08:10.003Z,8.40
2018-10-16T00:09:09.986Z,7.50
2018-10-16T00:10:09.973Z,7.90
2018-10-16T00:11:09.988Z,8.00
2018-10-16T00:12:09.953Z,8.00
2018-10-16T00:13:09.940Z,9.10
2018-10-16T00:14:09.935Z,8.20
2018-10-16T00:15:09.928Z,8.50
2018-10-16T00:16:09.936Z,9.10
2018-10-16T00:17:09.898Z,9.00
2018-10-16T00:18:09.893Z,8.50
2018-10-16T00:19:09.872Z,8.50
2018-10-16T00:20:09.869Z,8.00
2018-10-16T00:21:09.884Z,9.00
2018-10-16T00:22:09.838Z,9.80
2018-10-16T00:23:09.826Z,8.30
2018-10-16T00:24:09.817Z,8.60
2018-10-16T00:25:09.808Z,8.30
2018-10-16T00:26:09.818Z,8.00
2018-10-16T00:27:09.782Z,8.30
2018-10-16T00:28:09.773Z,8.50
2018-10-16T00:29:09.759Z,8.00
2018-10-16T00:30:09.753Z,9.40
2018-10-16T00:31:09.775Z,9.40
2018-10-16T00:32:09.732Z,8.10
2018-10-16T00:33:09.721Z,8.50
2018-10-16T00:34:16.721Z,8.70
2018-10-16T00:35:16.714Z,9.00
2018-10-16T00:36:09.810Z,8.20
2018-10-16T00:37:09.670Z,8.20
2018-10-16T00:38:09.657Z,7.90
2018-10-16T00:39:09.651Z,7.70
2018-10-16T00:40:09.633Z,9.50
2018-10-16T00:41:09.650Z,7.90
2018-10-16T00:42:09.617Z,8.80
2018-10-16T00:43:09.603Z,8.40
2018-10-16T00:44:09.589Z,8.00
2018-10-16T00:45:09.589Z,8.30
2018-10-16T00:46:09.597Z,8.80
2018-10-16T00:47:09.560Z,8.20
2018-10-16T00:48:09.549Z,8.30
2018-10-16T00:49:09.545Z,8.30
2018-10-16T00:50:09.527Z,8.60
2018-10-16T00:51:09.533Z,9.20
2018-10-16T00:52:09.504Z,8.60
2018-10-16T00:53:09.496Z,8.30
2018-10-16T00:54:09.479Z,7.80
2018-10-16T00:55:09.470Z,9.00
2018-10-16T00:56:09.484Z,8.50
2018-10-16T00:57:09.455Z,8.70
2018-10-16T00:58:09.434Z,8.90
2018-10-16T00:59:09.429Z,8.10
2018-10-16T01:00:09.410Z,8.80
2018-10-16T01:01:09.432Z,8.60
2018-10-16T01:02:09.386Z,7.60
2018-10-16T01:03:09.387Z,7.90
2018-10-16T01:04:09.367Z,9.80
2018-10-16T01:05:09.363Z,9.00
2018-10-16T01:06:09.372Z,7.60
2018-10-16T01:07:09.328Z,8.10
2018-10-16T01:08:09.322Z,10.90
2018-10-16T01:09:09.321Z,7.90
2018-10-16T01:10:09.298Z,8.40
2018-10-16T01:11:09.310Z,10.50
2018-10-16T01:12:09.280Z,8.80
2018-10-16T01:13:09.279Z,8.90
2018-10-16T01:14:09.251Z,8.80
2018-10-16T01:15:09.244Z,7.90
2018-10-16T01:16:09.258Z,8.50
2018-10-16T01:17:09.217Z,8.60
2018-10-16T01:18:09.213Z,8.00
2018-10-16T01:19:09.195Z,8.40
2018-10-16T01:20:09.186Z,8.20
2018-10-16T01:21:09.196Z,8.60
2018-10-16T01:22:09.160Z,7.90
2018-10-16T01:23:09.147Z,8.10
2018-10-16T01:24:09.148Z,8.30
2018-10-16T01:25:09.125Z,10.30
2018-10-16T01:26:09.118Z,10.10
2018-10-16T01:27:09.124Z,9.30
2018-10-16T01:28:09.090Z,8.90
2018-10-16T01:29:09.080Z,8.50
2018-10-16T01:30:09.074Z,8.70
2018-10-16T01:31:09.078Z,8.40
2018-10-16T01:32:09.076Z,9.90
2018-10-16T01:33:09.035Z,8.30
2018-10-16T01:34:09.031Z,9.10
2018-10-16T01:35:09.017Z,9.10
2018-10-16T01:36:09.007Z,8.90
2018-10-16T01:37:09.021Z,8.80
2018-10-16T01:38:08.982Z,9.00
2018-10-16T01:39:08.968Z,8.40
2018-10-16T01:40:08.965Z,8.30
2018-10-16T01:41:08.958Z,8.70
2018-10-16T01:42:08.959Z,9.30
2018-10-16T01:43:08.923Z,9.10
2018-10-16T01:44:08.923Z,10.30
2018-10-16T01:45:08.908Z,10.10
2018-10-16T01:46:08.891Z,10.40
2018-10-16T01:47:08.902Z,10.70
2018-10-16T01:48:08.866Z,10.90
2018-10-16T01:49:08.856Z,9.10
2018-10-16T01:50:08.841Z,10.50
2018-10-16T01:51:08.835Z,10.20
2018-10-16T01:52:08.869Z,10.70
2018-10-16T01:53:08.814Z,12.40
2018-10-16T01:54:08.802Z,13.20
2018-10-16T01:55:08.799Z,10.90
2018-10-16T01:56:08.774Z,9.90
2018-10-16T01:57:08.797Z,14.10
2018-10-16T01:58:08.762Z,10.90
2018-10-16T01:59:08.744Z,9.40
2018-10-16T02:00:08.735Z,9.90
2018-10-16T02:01:08.719Z,9.50
2018-10-16T02:02:08.739Z,10.00
2018-10-16T02:03:08.699Z,10.10
2018-10-16T02:04:08.684Z,8.80
2018-10-16T02:05:08.676Z,10.10
2018-10-16T02:06:08.665Z,8.40
2018-10-16T02:07:08.677Z,8.80
2018-10-16T02:08:08.642Z,9.00
2018-10-16T02:09:08.627Z,8.80
2018-10-16T02:10:08.615Z,8.10
2018-10-16T02:11:08.605Z,9.30
2018-10-16T02:12:08.619Z,8.90
2018-10-16T02:13:08.590Z,10.80
2018-10-16T02:14:08.580Z,8.20
2018-10-16T02:15:08.562Z,7.80
2018-10-16T02:16:08.553Z,8.90
2018-10-16T02:17:08.566Z,8.90
2018-10-16T02:18:08.530Z,10.30
2018-10-16T02:19:08.515Z,11.70
2018-10-16T02:20:08.508Z,9.20
2018-10-16T02:21:08.493Z,9.00
2018-10-16T02:22:08.504Z,9.00
2018-10-16T02:23:08.468Z,9.80
2018-10-16T02:24:08.458Z,10.20
2018-10-16T02:25:08.445Z,10.20
2018-10-16T02:26:08.437Z,10.10
2018-10-16T02:27:08.450Z,10.10
2018-10-16T02:28:08.413Z,8.70
2018-10-16T02:29:08.404Z,8.20
2018-10-16T02:30:08.391Z,8.80
2018-10-16T02:31:08.379Z,9.80
2018-10-16T02:32:08.397Z,10.50
2018-10-16T02:33:08.356Z,10.10
2018-10-16T02:34:08.361Z,8.90
2018-10-16T02:35:08.356Z,9.90
2018-10-16T02:36:08.321Z,9.50
2018-10-16T02:37:08.337Z,9.60
2018-10-16T02:38:08.302Z,9.70
2018-10-16T02:39:08.289Z,8.60
2018-10-16T02:40:08.278Z,9.70
2018-10-16T02:41:08.270Z,9.00
2018-10-16T02:42:08.283Z,8.70
2018-10-16T02:43:08.247Z,8.40
2018-10-16T02:44:08.233Z,9.00
2018-10-16T02:45:08.220Z,8.40
2018-10-16T02:46:08.213Z,8.40
2018-10-16T02:47:08.224Z,9.40
2018-10-16T02:48:08.195Z,8.60
2018-10-16T02:49:08.174Z,8.60
2018-10-16T02:50:08.163Z,8.20
2018-10-16T02:51:08.154Z,11.70
2018-10-16T02:52:08.165Z,9.60
2018-10-16T02:53:08.129Z,9.10
2018-10-16T02:54:08.121Z,8.90
2018-10-16T02:55:08.108Z,8.50
2018-10-16T02:56:08.105Z,8.20
2018-10-16T02:57:08.144Z,9.00
2018-10-16T02:58:08.076Z,8.40
2018-10-16T02:59:08.062Z,8.80
2018-10-16T03:00:08.055Z,8.90
2018-10-16T03:01:08.047Z,12.90
2018-10-16T03:02:08.053Z,9.10
2018-10-16T03:03:08.025Z,9.70
2018-10-16T03:04:08.005Z,9.60
2018-10-16T03:05:07.993Z,9.60
2018-10-16T03:06:07.993Z,9.20
2018-10-16T03:07:08.003Z,9.40
2018-10-16T03:08:08.004Z,11.10
2018-10-16T03:09:07.948Z,8.90
2018-10-16T03:10:07.940Z,11.30
2018-10-16T03:11:07.936Z,10.50
2018-10-16T03:12:07.917Z,10.40
2018-10-16T03:13:07.928Z,9.70
2018-10-16T03:14:07.891Z,10.10
2018-10-16T03:15:07.880Z,12.10
2018-10-16T03:16:07.874Z,10.10
2018-10-16T03:17:07.872Z,10.00
2018-10-16T03:18:07.874Z,10.80
2018-10-16T03:19:07.835Z,8.80
2018-10-16T03:20:07.825Z,9.00
2018-10-16T03:21:07.813Z,9.00
2018-10-16T03:22:07.801Z,9.80
2018-10-16T03:23:07.815Z,10.00
2018-10-16T03:24:07.788Z,9.50
2018-10-16T03:25:07.769Z,11.20
2018-10-16T03:26:07.761Z,10.30
2018-10-16T03:27:07.753Z,9.70
2018-10-16T03:28:07.761Z,9.40
2018-10-16T03:29:07.726Z,10.10
2018-10-16T03:30:07.720Z,9.30
2018-10-16T03:31:07.706Z,9.90
2018-10-16T03:32:07.691Z,10.80
2018-10-16T03:33:07.717Z,9.30
2018-10-16T03:34:07.679Z,10.10
2018-10-16T03:35:07.653Z,11.90
2018-10-16T03:36:07.650Z,9.40
2018-10-16T03:37:07.638Z,10.50
2018-10-16T03:38:07.643Z,15.40
2018-10-16T03:39:07.612Z,9.90
2018-10-16T03:40:07.596Z,12.20
2018-10-16T03:41:07.585Z,10.00
2018-10-16T03:42:07.577Z,9.30
2018-10-16T03:43:07.588Z,10.00
2018-10-16T03:44:07.553Z,10.90
2018-10-16T03:45:07.542Z,10.50
2018-10-16T03:46:07.530Z,13.30
2018-10-16T03:47:07.519Z,11.40
2018-10-16T03:48:07.547Z,10.10
2018-10-16T03:49:07.497Z,9.90
2018-10-16T03:50:07.488Z,9.90
2018-10-16T03:51:07.472Z,9.60
2018-10-16T03:52:07.462Z,9.60
2018-10-16T03:53:07.478Z,9.20
2018-10-16T03:54:07.449Z,10.10
2018-10-16T03:55:07.427Z,10.00
2018-10-16T03:56:07.416Z,10.40
2018-10-16T03:57:07.441Z,10.80
2018-10-16T03:58:07.417Z,11.00
2018-10-16T03:59:07.380Z,10.40
2018-10-16T04:00:07.373Z,10.80
2018-10-16T04:01:07.365Z,9.30
2018-10-16T04:02:07.347Z,10.80
2018-10-16T04:03:07.363Z,11.40
2018-10-16T04:04:07.325Z,9.40
2018-10-16T04:05:07.313Z,10.60
2018-10-16T04:06:07.320Z,11.40
2018-10-16T04:07:07.294Z,10.10
2018-10-16T04:08:07.311Z,13.00
2018-10-16T04:09:07.279Z,12.30
2018-10-16T04:10:07.259Z,10.60
2018-10-16T04:11:07.245Z,10.20
2018-10-16T04:12:07.236Z,11.30
2018-10-16T04:13:07.250Z,11.30
2018-10-16T04:14:07.304Z,10.20
2018-10-16T04:15:07.209Z,10.80
2018-10-16T04:16:07.190Z,11.50
2018-10-16T04:17:07.176Z,12.70
2018-10-16T04:18:07.190Z,10.90
2018-10-16T04:19:07.154Z,10.30
2018-10-16T04:20:07.144Z,10.40
2018-10-16T04:21:07.141Z,11.00
2018-10-16T04:22:07.120Z,10.90
2018-10-16T04:23:07.136Z,10.30
2018-10-16T04:24:07.098Z,10.30
2018-10-16T04:25:07.089Z,11.00
2018-10-16T04:26:07.076Z,11.70
2018-10-16T04:27:07.068Z,12.40
2018-10-16T04:28:07.093Z,11.60
2018-10-16T04:29:07.112Z,12.50
2018-10-16T04:30:07.032Z,14.20
2018-10-16T04:31:07.022Z,11.60
2018-10-16T04:32:07.009Z,11.80
2018-10-16T04:33:07.022Z,10.70
2018-10-16T04:34:06.990Z,13.50
2018-10-16T04:35:06.978Z,14.50
2018-10-16T04:36:06.967Z,12.00
2018-10-16T04:37:06.953Z,15.50
2018-10-16T04:38:06.964Z,12.70
2018-10-16T04:39:06.939Z,13.60
2018-10-16T04:40:06.917Z,15.50
2018-10-16T04:41:06.908Z,15.00
2018-10-16T04:42:06.895Z,10.90
2018-10-16T04:43:06.909Z,12.00
2018-10-16T04:44:06.873Z,13.60
2018-10-16T04:45:06.864Z,13.30
2018-10-16T04:46:06.873Z,12.50
2018-10-16T04:47:06.838Z,12.90
2018-10-16T04:48:06.882Z,11.20
2018-10-16T04:49:06.817Z,12.80
2018-10-16T04:50:06.804Z,10.40
2018-10-16T04:51:06.792Z,12.50
2018-10-16T04:52:06.794Z,10.50
2018-10-16T04:53:06.773Z,11.10
2018-10-16T04:54:06.784Z,13.80
2018-10-16T04:55:06.770Z,10.80
2018-10-16T04:56:06.737Z,12.30
2018-10-16T04:57:06.727Z,12.90
2018-10-16T04:58:06.721Z,11.20
2018-10-16T04:59:06.730Z,10.70
2018-10-16T05:00:06.702Z,11.60
2018-10-16T05:01:06.679Z,13.90
2018-10-16T05:02:06.667Z,11.70
2018-10-16T05:03:06.657Z,11.60
2018-10-16T05:04:06.732Z,12.30
2018-10-16T05:05:06.637Z,11.80
2018-10-16T05:06:06.637Z,10.70
2018-10-16T05:07:06.617Z,13.90
2018-10-16T05:08:06.625Z,11.40
2018-10-16T05:09:06.622Z,11.40
2018-10-16T05:10:06.583Z,10.80
2018-10-16T05:11:06.566Z,13.00
2018-10-16T05:12:06.559Z,11.60
2018-10-16T05:13:06.564Z,11.90
2018-10-16T05:14:06.558Z,10.40
2018-10-16T05:15:06.521Z,10.40
2018-10-16T05:16:06.510Z,11.70
2018-10-16T05:17:06.503Z,11.20
2018-10-16T05:18:06.493Z,11.70
2018-10-16T05:19:06.627Z,11.60
2018-10-16T05:20:06.465Z,12.20
2018-10-16T05:21:06.471Z,12.20
2018-10-16T05:22:06.442Z,11.70
2018-10-16T05:23:06.432Z,11.30
2018-10-16T05:24:06.452Z,11.00
2018-10-16T05:25:06.407Z,11.90
2018-10-16T05:26:06.422Z,11.90
2018-10-16T05:27:06.395Z,14.80
2018-10-16T05:28:06.375Z,12.80
2018-10-16T05:29:06.392Z,10.80
2018-10-16T05:30:06.356Z,12.20
2018-10-16T05:31:06.388Z,15.40
2018-10-16T05:32:06.328Z,11.00
2018-10-16T05:33:06.317Z,13.10
2018-10-16T05:34:06.331Z,12.90
2018-10-16T05:35:06.294Z,12.50
2018-10-16T05:36:06.294Z,12.80
2018-10-16T05:37:06.279Z,10.90
2018-10-16T05:38:06.262Z,12.10
2018-10-16T05:39:06.281Z,14.00
2018-10-16T05:40:06.239Z,13.60
2018-10-16T05:41:06.227Z,11.20
2018-10-16T05:42:06.225Z,12.50
2018-10-16T05:43:06.203Z,16.60
2018-10-16T05:44:06.221Z,14.40
2018-10-16T05:45:06.181Z,11.20
2018-10-16T05:46:06.171Z,12.90
2018-10-16T05:47:06.158Z,12.10
2018-10-16T05:48:06.150Z,13.50
2018-10-16T05:49:06.166Z,14.90
2018-10-16T05:50:06.125Z,12.10
2018-10-16T05:51:06.117Z,13.80
2018-10-16T05:52:06.103Z,12.60
2018-10-16T05:53:06.092Z,14.60
2018-10-16T05:54:06.165Z,14.00
2018-10-16T05:55:06.081Z,12.00
2018-10-16T05:56:06.063Z,11.30
2018-10-16T05:57:06.047Z,12.80
2018-10-16T05:58:06.036Z,14.30
2018-10-16T05:59:06.048Z,16.20
2018-10-16T06:00:06.013Z,12.20
2018-10-16T06:01:06.004Z,15.40
2018-10-16T06:02:05.993Z,12.90
2018-10-16T06:03:05.985Z,16.00
2018-10-16T06:04:06.035Z,12.50
2018-10-16T06:05:05.959Z,19.10
2018-10-16T06:06:05.946Z,16.00
2018-10-16T06:07:05.933Z,12.30
2018-10-16T06:08:05.921Z,13.20
2018-10-16T06:09:05.940Z,14.00
2018-10-16T06:10:05.899Z,11.60
2018-10-16T06:11:05.889Z,13.00
2018-10-16T06:12:05.918Z,15.90
2018-10-16T06:13:05.877Z,15.40
2018-10-16T06:14:05.882Z,15.40
2018-10-16T06:15:05.842Z,18.10
2018-10-16T06:16:05.842Z,19.10
2018-10-16T06:17:05.827Z,21.40
2018-10-16T06:18:05.810Z,16.10
2018-10-16T06:19:05.823Z,14.00
2018-10-16T06:20:05.811Z,15.10
2018-10-16T06:21:05.774Z,12.60
2018-10-16T06:22:05.765Z,19.30
2018-10-16T06:23:05.753Z,14.00
2018-10-16T06:24:05.765Z,14.80
2018-10-16T06:25:05.730Z,12.60
2018-10-16T06:26:05.722Z,16.80
2018-10-16T06:27:05.708Z,22.80
2018-10-16T06:28:05.698Z,14.90
2018-10-16T06:29:05.708Z,13.60
2018-10-16T06:30:05.693Z,15.60
2018-10-16T06:31:05.662Z,14.80
2018-10-16T06:32:05.651Z,16.80
2018-10-16T06:33:05.692Z,14.90
2018-10-16T06:34:05.629Z,14.70
2018-10-16T06:35:05.640Z,17.10
2018-10-16T06:36:05.613Z,14.50
2018-10-16T06:37:05.594Z,17.70
2018-10-16T06:38:05.582Z,14.60
2018-10-16T06:39:05.574Z,14.60
2018-10-16T06:40:05.585Z,13.70
2018-10-16T06:41:05.759Z,11.20
2018-10-16T06:42:05.537Z,12.00
2018-10-16T06:43:05.535Z,12.80
2018-10-16T06:44:05.517Z,11.90
2018-10-16T06:45:05.528Z,12.60
2018-10-16T06:46:05.494Z,12.00
2018-10-16T06:47:05.530Z,13.70
2018-10-16T06:48:05.591Z,12.80
2018-10-16T06:49:05.462Z,14.20
2018-10-16T06:50:05.472Z,13.20
2018-10-16T06:51:05.442Z,12.00
2018-10-16T06:52:05.424Z,14.10
2018-10-16T06:53:05.458Z,13.10
2018-10-16T06:54:05.408Z,13.40
2018-10-16T06:55:05.452Z,12.90
2018-10-16T06:56:05.427Z,12.70
2018-10-16T06:57:05.370Z,11.90
2018-10-16T06:58:05.357Z,12.10
2018-10-16T06:59:05.347Z,12.80
2018-10-16T07:00:05.383Z,15.60
2018-10-16T07:01:05.323Z,13.40
2018-10-16T07:02:05.312Z,13.40
2018-10-16T07:03:05.300Z,12.70
2018-10-16T07:04:05.291Z,13.40
2018-10-16T07:05:05.300Z,15.70
2018-10-16T07:06:05.265Z,12.70
2018-10-16T07:07:05.331Z,13.40
2018-10-16T07:08:05.243Z,12.70
2018-10-16T07:09:05.234Z,13.00
2018-10-16T07:10:05.256Z,12.40
2018-10-16T07:11:05.211Z,11.70
2018-10-16T07:12:05.204Z,12.40
2018-10-16T07:13:05.191Z,13.20
2018-10-16T07:14:05.178Z,15.50
2018-10-16T07:15:05.288Z,12.90
2018-10-16T07:16:05.161Z,19.00
2018-10-16T07:17:05.146Z,13.50
2018-10-16T07:18:05.133Z,12.20
2018-10-16T07:19:05.120Z,12.70
2018-10-16T07:20:05.133Z,12.90
2018-10-16T07:21:05.108Z,16.30
2018-10-16T07:22:05.092Z,15.30
2018-10-16T07:23:05.078Z,13.50
2018-10-16T07:24:05.178Z,12.30
2018-10-16T07:25:05.090Z,13.90
2018-10-16T07:26:05.044Z,12.50
2018-10-16T07:27:05.033Z,13.80
2018-10-16T07:28:05.024Z,14.40
2018-10-16T07:29:05.015Z,15.50
2018-10-16T07:30:05.057Z,13.80
2018-10-16T07:31:04.985Z,15.10
2018-10-16T07:32:04.972Z,14.80
2018-10-16T07:33:04.962Z,13.40
2018-10-16T07:34:04.951Z,15.20
2018-10-16T07:35:04.988Z,12.30
2018-10-16T07:36:04.929Z,12.20
2018-10-16T07:37:04.921Z,14.20
2018-10-16T07:38:05.124Z,15.10
2018-10-16T07:39:04.908Z,14.50
2018-10-16T07:40:04.907Z,14.70
2018-10-16T07:41:04.872Z,13.80
2018-10-16T07:42:04.859Z,13.90
2018-10-16T07:43:04.853Z,16.10
2018-10-16T07:44:04.838Z,15.40
2018-10-16T07:45:04.851Z,14.50
2018-10-16T07:46:04.814Z,14.40
2018-10-16T07:47:04.803Z,14.20
2018-10-16T07:48:04.792Z,11.90
2018-10-16T07:49:04.780Z,13.00
2018-10-16T07:50:04.797Z,14.10
2018-10-16T07:51:04.760Z,11.50
2018-10-16T07:52:04.748Z,10.60
2018-10-16T07:53:04.744Z,11.60
2018-10-16T07:54:04.733Z,13.60
2018-10-16T07:55:04.738Z,13.40
2018-10-16T07:56:04.703Z,14.70
2018-10-16T07:57:04.697Z,12.00
2018-10-16T07:58:04.684Z,12.60
2018-10-16T07:59:04.674Z,12.80
2018-10-16T08:00:04.681Z,13.70
2018-10-16T08:01:04.650Z,12.50
2018-10-16T08:02:04.636Z,14.30
2018-10-16T08:03:04.632Z,13.80
2018-10-16T08:04:04.611Z,14.60
2018-10-16T08:05:04.736Z,13.10
2018-10-16T08:06:04.607Z,14.20
2018-10-16T08:07:04.581Z,14.20
2018-10-16T08:08:04.567Z,17.50
2018-10-16T08:09:04.559Z,16.00
2018-10-16T08:10:04.573Z,11.80
2018-10-16T08:11:04.533Z,13.20
2018-10-16T08:12:04.523Z,14.50
2018-10-16T08:13:04.511Z,15.00
2018-10-16T08:14:04.498Z,16.20
2018-10-16T08:15:04.517Z,13.00
2018-10-16T08:16:04.500Z,15.30
2018-10-16T08:17:04.479Z,14.40
2018-10-16T08:18:04.511Z,12.10
2018-10-16T08:19:04.523Z,13.10
2018-10-16T08:20:04.444Z,14.30
2018-10-16T08:21:04.457Z,13.70
2018-10-16T08:22:04.414Z,14.10
2018-10-16T08:23:04.396Z,15.10
2018-10-16T08:24:04.385Z,14.10
2018-10-16T08:25:04.377Z,12.10
2018-10-16T08:26:04.388Z,12.80
2018-10-16T08:27:04.473Z,12.90
2018-10-16T08:28:04.400Z,14.60
2018-10-16T08:29:04.335Z,12.60
2018-10-16T08:30:04.370Z,12.60
2018-10-16T08:31:04.347Z,14.50
2018-10-16T08:32:04.297Z,12.70
2018-10-16T08:33:04.322Z,12.30
2018-10-16T08:34:04.284Z,13.00
2018-10-16T08:35:04.279Z,13.50
2018-10-16T08:36:04.373Z,13.80
2018-10-16T08:37:04.256Z,14.70
2018-10-16T08:38:04.229Z,12.90
2018-10-16T08:39:04.220Z,14.20
2018-10-16T08:40:04.205Z,13.10
2018-10-16T08:41:04.215Z,12.30
2018-10-16T08:42:04.260Z,11.50
2018-10-16T08:43:04.169Z,11.50
2018-10-16T08:44:04.210Z,12.10
2018-10-16T08:45:04.247Z,12.80
2018-10-16T08:46:04.195Z,11.30
2018-10-16T08:47:04.131Z,12.00
2018-10-16T08:48:04.115Z,14.20
2018-10-16T08:49:04.105Z,13.20
2018-10-16T08:50:04.136Z,12.40
2018-10-16T08:51:04.125Z,16.40
2018-10-16T08:52:04.069Z,13.20
2018-10-16T08:53:04.060Z,14.60
2018-10-16T08:54:04.053Z,13.20
2018-10-16T08:55:04.161Z,15.60
2018-10-16T08:56:04.053Z,14.20
2018-10-16T08:57:04.025Z,14.90
2018-10-16T08:58:04.000Z,14.20
2018-10-16T08:59:03.988Z,14.40
2018-10-16T09:00:03.979Z,14.80
2018-10-16T09:01:03.991Z,11.90
2018-10-16T09:02:03.966Z,13.30
2018-10-16T09:03:03.942Z,12.10
2018-10-16T09:04:03.933Z,12.50
2018-10-16T09:05:03.919Z,14.10
2018-10-16T09:06:03.941Z,15.60
2018-10-16T09:07:03.921Z,13.60
2018-10-16T09:08:03.888Z,14.20
2018-10-16T09:09:03.880Z,16.20
2018-10-16T09:10:03.868Z,12.00
2018-10-16T09:11:03.906Z,11.70
2018-10-16T09:12:03.841Z,12.70
2018-10-16T09:13:03.845Z,14.40
2018-10-16T09:14:03.877Z,13.50
2018-10-16T09:15:03.809Z,12.20
2018-10-16T09:16:03.819Z,12.60
2018-10-16T09:17:03.800Z,13.90
2018-10-16T09:18:03.779Z,13.20
2018-10-16T09:19:03.775Z,11.90
2018-10-16T09:20:03.756Z,23.30
2018-10-16T09:21:03.764Z,11.70
2018-10-16T09:22:03.751Z,13.10
2018-10-16T09:23:03.717Z,11.60
2018-10-16T09:24:03.710Z,10.10
2018-10-16T09:25:03.705Z,10.20
2018-10-16T09:26:03.710Z,11.00
2018-10-16T09:27:03.692Z,11.90
2018-10-16T09:28:03.671Z,17.80
2018-10-16T09:29:03.664Z,13.00
2018-10-16T09:30:03.664Z,12.80
2018-10-16T09:31:03.783Z,13.90
2018-10-16T09:32:03.613Z,13.00
2018-10-16T09:33:03.616Z,10.80
2018-10-16T09:34:03.593Z,13.40
2018-10-16T09:35:03.588Z,14.10
2018-10-16T09:36:03.593Z,12.10
2018-10-16T09:37:03.560Z,13.40
2018-10-16T09:38:03.617Z,13.70
2018-10-16T09:39:03.543Z,11.70
2018-10-16T09:40:03.535Z,11.20
2018-10-16T09:41:03.537Z,9.80
2018-10-16T09:42:03.501Z,14.40
2018-10-16T09:43:03.490Z,16.80
2018-10-16T09:44:03.519Z,11.60
2018-10-16T09:45:03.474Z,11.30
2018-10-16T09:46:03.487Z,10.80
2018-10-16T09:47:03.446Z,9.60
2018-10-16T09:48:03.438Z,10.20
2018-10-16T09:49:03.500Z,10.30
2018-10-16T09:50:03.418Z,13.70
2018-10-16T09:51:03.440Z,12.60
2018-10-16T09:52:03.399Z,10.30
2018-10-16T09:53:03.392Z,9.70
2018-10-16T09:54:03.369Z,11.70
2018-10-16T09:55:03.355Z,12.50
2018-10-16T09:56:03.377Z,12.00
2018-10-16T09:57:03.335Z,12.20
2018-10-16T09:58:03.394Z,14.00
2018-10-16T09:59:03.316Z,11.00
2018-10-16T10:00:03.299Z,11.00
2018-10-16T10:01:03.411Z,7.90
2018-10-16T10:02:03.308Z,9.70
2018-10-16T10:03:03.293Z,11.50
2018-10-16T10:04:03.264Z,10.80
2018-10-16T10:05:03.256Z,10.90
2018-10-16T10:06:03.233Z,9.80
2018-10-16T10:07:03.246Z,9.30
2018-10-16T10:08:03.212Z,9.50
2018-10-16T10:09:03.201Z,9.80
2018-10-16T10:10:03.214Z,11.90
2018-10-16T10:11:03.206Z,9.60
2018-10-16T10:12:03.191Z,8.60
2018-10-16T10:13:03.166Z,8.70
2018-10-16T10:14:03.148Z,8.10
2018-10-16T10:15:03.134Z,8.60
2018-10-16T10:16:03.166Z,10.70
2018-10-16T10:17:03.142Z,9.00
2018-10-16T10:18:03.095Z,8.20
2018-10-16T10:19:03.087Z,9.50
2018-10-16T10:20:03.085Z,10.60
2018-10-16T10:21:03.062Z,9.70
2018-10-16T10:22:03.073Z,8.00
2018-10-16T10:23:03.041Z,10.30
2018-10-16T10:24:03.030Z,12.60
2018-10-16T10:25:03.046Z,10.20
2018-10-16T10:26:03.010Z,11.40
2018-10-16T10:27:03.026Z,10.70
2018-10-16T10:28:02.982Z,9.20
2018-10-16T10:29:02.972Z,11.30
2018-10-16T10:30:02.989Z,11.70
2018-10-16T10:31:02.954Z,10.70
2018-10-16T10:32:02.965Z,13.80
2018-10-16T10:33:02.936Z,13.20
2018-10-16T10:34:02.917Z,12.80
2018-10-16T10:35:02.962Z,13.60
2018-10-16T10:36:02.950Z,10.60
2018-10-16T10:37:02.913Z,15.30
2018-10-16T10:38:02.868Z,9.10
2018-10-16T10:39:02.858Z,10.50
2018-10-16T10:40:02.850Z,12.90
2018-10-16T10:41:02.840Z,11.10
2018-10-16T10:42:03.022Z,12.90
2018-10-16T10:43:02.822Z,12.50
2018-10-16T10:44:02.843Z,9.60
2018-10-16T10:45:02.848Z,9.30
2018-10-16T10:46:02.785Z,10.90
2018-10-16T10:47:02.792Z,10.30
2018-10-16T10:48:02.758Z,8.10
2018-10-16T10:49:02.775Z,8.90
2018-10-16T10:50:02.847Z,8.70
2018-10-16T10:51:03.067Z,9.30
2018-10-16T10:52:02.743Z,8.70
2018-10-16T10:53:02.701Z,7.90
2018-10-16T10:54:02.704Z,8.40
2018-10-16T10:55:02.688Z,10.00
2018-10-16T10:56:02.668Z,8.40
2018-10-16T10:57:02.794Z,10.10
2018-10-16T10:58:02.646Z,7.90
2018-10-16T10:59:02.632Z,8.10
2018-10-16T11:00:02.628Z,7.00
2018-10-16T11:01:02.633Z,8.60
2018-10-16T11:02:02.627Z,7.80
2018-10-16T11:03:02.674Z,9.30
2018-10-16T11:04:02.588Z,7.90
2018-10-16T11:05:02.572Z,8.50
2018-10-16T11:06:02.553Z,9.00
2018-10-16T11:07:02.571Z,9.20
2018-10-16T11:08:02.537Z,9.30
2018-10-16T11:09:02.537Z,8.60
2018-10-16T11:10:02.509Z,8.60
2018-10-16T11:11:02.498Z,8.30
2018-10-16T11:12:02.534Z,8.60
2018-10-16T11:13:02.473Z,9.30
2018-10-16T11:14:02.470Z,9.40
2018-10-16T11:15:02.512Z,9.30
2018-10-16T11:16:02.442Z,11.60
2018-10-16T11:17:02.455Z,7.90
2018-10-16T11:18:02.426Z,10.70
2018-10-16T11:19:02.408Z,11.70
2018-10-16T11:20:02.398Z,7.80
2018-10-16T11:21:02.412Z,8.60
2018-10-16T11:22:02.414Z,7.40
2018-10-16T11:23:02.360Z,7.20
2018-10-16T11:24:02.350Z,7.20
2018-10-16T11:25:02.338Z,7.90
2018-10-16T11:26:02.340Z,8.60
2018-10-16T11:27:02.423Z,6.90
2018-10-16T11:28:02.318Z,10.70
2018-10-16T11:29:02.297Z,7.70
2018-10-16T11:30:02.290Z,7.50
2018-10-16T11:31:02.273Z,7.00
2018-10-16T11:32:02.284Z,6.90
2018-10-16T11:33:02.348Z,9.00
2018-10-16T11:34:02.309Z,9.80
2018-10-16T11:35:02.226Z,8.80
2018-10-16T11:36:02.217Z,9.00
2018-10-16T11:37:02.281Z,7.70
2018-10-16T11:38:02.194Z,6.90
2018-10-16T11:39:02.231Z,9.40
2018-10-16T11:40:02.172Z,9.60
2018-10-16T11:41:02.170Z,7.30
2018-10-16T11:42:02.154Z,7.60
2018-10-16T11:43:02.175Z,7.90
2018-10-16T11:44:02.128Z,7.40
2018-10-16T11:45:02.128Z,8.50
2018-10-16T11:46:02.105Z,7.50
2018-10-16T11:47:02.094Z,6.80
2018-10-16T11:48:02.104Z,6.60
2018-10-16T11:49:02.072Z,8.70
2018-10-16T11:50:02.191Z,10.00
2018-10-16T11:51:02.066Z,9.70
2018-10-16T11:52:02.066Z,9.20
2018-10-16T11:53:02.069Z,7.90
2018-10-16T11:54:02.016Z,8.60
2018-10-16T11:55:02.016Z,7.00
2018-10-16T11:56:02.082Z,9.30
2018-10-16T11:57:01.987Z,8.70
2018-10-16T11:58:01.999Z,7.40
2018-10-16T11:59:01.963Z,8.60
2018-10-16T12:00:01.949Z,7.80
2018-10-16T12:01:01.948Z,6.70
2018-10-16T12:02:01.982Z,6.50
2018-10-16T12:03:01.940Z,7.60
2018-10-16T12:04:01.903Z,7.10
2018-10-16T12:05:01.894Z,8.90
2018-10-16T12:06:01.914Z,8.40
2018-10-16T12:07:01.939Z,29.40
2018-10-16T12:08:01.947Z,9.00
2018-10-16T12:09:01.852Z,11.00
2018-10-16T12:10:01.838Z,8.80
2018-10-16T12:11:01.879Z,13.10
2018-10-16T12:12:01.818Z,10.50
2018-10-16T12:13:01.866Z,12.10
2018-10-16T12:14:01.819Z,6.70
2018-10-16T12:15:01.794Z,11.80
2018-10-16T12:16:01.780Z,9.50
2018-10-16T12:17:01.767Z,6.00
2018-10-16T12:18:01.778Z,8.90
2018-10-16T12:19:01.758Z,10.90
2018-10-16T12:20:01.940Z,8.30
2018-10-16T12:21:01.766Z,7.50
2018-10-16T12:22:01.720Z,12.00
2018-10-16T12:23:01.741Z,7.50
2018-10-16T12:24:01.732Z,7.20
2018-10-16T12:25:01.695Z,17.60
2018-10-16T12:26:01.675Z,13.80
2018-10-16T12:27:01.767Z,12.10
2018-10-16T12:28:01.685Z,9.50
2018-10-16T12:29:01.799Z,5.30
2018-10-16T12:30:01.642Z,9.30
2018-10-16T12:31:01.645Z,9.10
2018-10-16T12:32:01.618Z,7.80
2018-10-16T12:33:01.681Z,8.30
2018-10-16T12:34:01.605Z,8.30
2018-10-16T12:35:01.571Z,6.80
2018-10-16T12:36:01.566Z,9.60
2018-10-16T12:37:01.613Z,6.30
2018-10-16T12:38:01.564Z,7.10
2018-10-16T12:39:01.606Z,7.50
2018-10-16T12:40:01.670Z,6.60
2018-10-16T12:41:01.569Z,5.00
2018-10-16T12:42:01.584Z,5.10
2018-10-16T12:43:01.590Z,18.70
2018-10-16T12:44:01.485Z,8.80
2018-10-16T12:45:01.557Z,6.30
2018-10-16T12:46:01.512Z,25.50
2018-10-16T12:47:01.492Z,14.90
2018-10-16T12:48:01.471Z,13.00
2018-10-16T12:49:01.422Z,33.80
2018-10-16T12:50:01.448Z,15.40
2018-10-16T12:51:01.423Z,11.00
2018-10-16T12:52:01.388Z,9.20
2018-10-16T12:53:01.414Z,4.40
2018-10-16T12:54:01.414Z,4.70
2018-10-16T12:55:01.421Z,7.20
2018-10-16T12:56:01.395Z,5.20
2018-10-16T12:57:01.557Z,6.50
2018-10-16T12:58:01.358Z,5.30
2018-10-16T12:59:01.363Z,7.30
2018-10-16T13:00:01.328Z,4.40
2018-10-16T13:01:01.297Z,7.60
2018-10-16T13:02:01.349Z,4.20